sensor_id;sensor_type;location;lat;lon;timestamp;P1;durP1;ratioP1;P2;durP2;ratioP2
11829;SDS011;5972;42.134;24.718;2023-04-15T00:00:48;5.03;;;3.78;;
11829;SDS011;5972;42.134;24.718;2023-04-15T00:03:15;5.07;;;3.92;;
11829;SDS011;5972;42.134;24.718;2023-04-15T00:05:44;4.65;;;4.00;;
11829;SDS011;5972;42.134;24.718;2023-04-15T00:08:10;6.43;;;4.63;;
11829;SDS011;5972;42.134;24.718;2023-04-15T00:10:37;5.53;;;4.28;;
11829;SDS011;5972;42.134;24.718;2023-04-15T00:13:04;6.55;;;4.40;;
11829;SDS011;5972;42.134;24.718;2023-04-15T00:15:30;7.18;;;4.60;;
11829;SDS011;5972;42.134;24.718;2023-04-15T00:17:57;5.22;;;4.57;;
11829;SDS011;5972;42.134;24.718;2023-04-15T00:20:23;6.00;;;4.28;;
11829;SDS011;5972;42.134;24.718;2023-04-15T00:22:51;7.07;;;4.60;;
11829;SDS011;5972;42.134;24.718;2023-04-15T00:25:18;6.30;;;4.68;;
11829;SDS011;5972;42.134;24.718;2023-04-15T00:27:45;9.48;;;5.20;;
11829;SDS011;5972;42.134;24.718;2023-04-15T00:30:11;5.93;;;4.63;;
11829;SDS011;5972;42.134;24.718;2023-04-15T00:32:38;7.45;;;4.70;;
11829;SDS011;5972;42.134;24.718;2023-04-15T00:35:06;7.80;;;4.72;;
11829;SDS011;5972;42.134;24.718;2023-04-15T00:37:33;5.88;;;4.43;;
11829;SDS011;5972;42.134;24.718;2023-04-15T00:40:02;7.25;;;4.50;;
11829;SDS011;5972;42.134;24.718;2023-04-15T00:42:30;5.10;;;4.35;;
11829;SDS011;5972;42.134;24.718;2023-04-15T00:44:57;6.68;;;4.40;;
11829;SDS011;5972;42.134;24.718;2023-04-15T00:47:23;5.63;;;4.75;;
11829;SDS011;5972;42.134;24.718;2023-04-15T00:49:50;5.50;;;4.30;;
11829;SDS011;5972;42.134;24.718;2023-04-15T00:52:17;8.32;;;4.65;;
11829;SDS011;5972;42.134;24.718;2023-04-15T00:54:43;5.80;;;4.28;;
11829;SDS011;5972;42.134;24.718;2023-04-15T00:57:11;5.88;;;4.38;;
11829;SDS011;5972;42.134;24.718;2023-04-15T00:59:38;5.20;;;4.70;;
11829;SDS011;5972;42.134;24.718;2023-04-15T01:02:04;5.43;;;4.45;;
11829;SDS011;5972;42.134;24.718;2023-04-15T01:04:31;4.75;;;4.22;;
11829;SDS011;5972;42.134;24.718;2023-04-15T01:06:57;5.82;;;4.43;;
11829;SDS011;5972;42.134;24.718;2023-04-15T01:09:24;5.70;;;4.32;;
11829;SDS011;5972;42.134;24.718;2023-04-15T01:11:51;6.60;;;3.97;;
11829;SDS011;5972;42.134;24.718;2023-04-15T01:14:19;5.10;;;3.67;;
11829;SDS011;5972;42.134;24.718;2023-04-15T01:16:46;5.82;;;3.75;;
11829;SDS011;5972;42.134;24.718;2023-04-15T01:19:12;4.30;;;3.42;;
11829;SDS011;5972;42.134;24.718;2023-04-15T01:21:39;4.20;;;3.38;;
11829;SDS011;5972;42.134;24.718;2023-04-15T01:24:07;4.00;;;3.40;;
11829;SDS011;5972;42.134;24.718;2023-04-15T01:26:36;3.85;;;3.30;;
11829;SDS011;5972;42.134;24.718;2023-04-15T01:29:02;3.70;;;3.35;;
11829;SDS011;5972;42.134;24.718;2023-04-15T01:31:29;3.50;;;3.17;;
11829;SDS011;5972;42.134;24.718;2023-04-15T01:33:56;5.75;;;3.30;;
11829;SDS011;5972;42.134;24.718;2023-04-15T01:36:22;4.53;;;2.85;;
11829;SDS011;5972;42.134;24.718;2023-04-15T01:38:49;3.80;;;2.75;;
11829;SDS011;5972;42.134;24.718;2023-04-15T01:41:16;3.50;;;2.60;;
11829;SDS011;5972;42.134;24.718;2023-04-15T01:43:45;3.53;;;2.50;;
11829;SDS011;5972;42.134;24.718;2023-04-15T01:46:12;3.53;;;2.58;;
11829;SDS011;5972;42.134;24.718;2023-04-15T01:48:38;3.75;;;2.75;;
11829;SDS011;5972;42.134;24.718;2023-04-15T01:51:05;3.22;;;2.90;;
11829;SDS011;5972;42.134;24.718;2023-04-15T01:53:32;3.05;;;2.75;;
11829;SDS011;5972;42.134;24.718;2023-04-15T01:55:58;2.97;;;2.72;;
11829;SDS011;5972;42.134;24.718;2023-04-15T01:58:25;3.00;;;2.67;;
11829;SDS011;5972;42.134;24.718;2023-04-15T02:00:53;6.97;;;2.80;;
11829;SDS011;5972;42.134;24.718;2023-04-15T02:03:19;4.88;;;3.00;;
11829;SDS011;5972;42.134;24.718;2023-04-15T02:05:46;4.72;;;2.78;;
11829;SDS011;5972;42.134;24.718;2023-04-15T02:08:13;6.68;;;2.75;;
11829;SDS011;5972;42.134;24.718;2023-04-15T02:10:39;3.20;;;2.70;;
11829;SDS011;5972;42.134;24.718;2023-04-15T02:13:06;6.00;;;3.92;;
11829;SDS011;5972;42.134;24.718;2023-04-15T02:15:33;4.32;;;3.20;;
11829;SDS011;5972;42.134;24.718;2023-04-15T02:18:01;3.03;;;2.75;;
11829;SDS011;5972;42.134;24.718;2023-04-15T02:20:27;3.53;;;2.70;;
11829;SDS011;5972;42.134;24.718;2023-04-15T02:22:56;3.80;;;3.03;;
11829;SDS011;5972;42.134;24.718;2023-04-15T02:25:22;5.30;;;3.30;;
11829;SDS011;5972;42.134;24.718;2023-04-15T02:27:49;5.30;;;3.28;;
11829;SDS011;5972;42.134;24.718;2023-04-15T02:30:15;6.22;;;2.90;;
11829;SDS011;5972;42.134;24.718;2023-04-15T02:32:42;4.97;;;2.92;;
11829;SDS011;5972;42.134;24.718;2023-04-15T02:35:10;5.72;;;2.78;;
11829;SDS011;5972;42.134;24.718;2023-04-15T02:37:37;4.65;;;3.00;;
11829;SDS011;5972;42.134;24.718;2023-04-15T02:40:07;3.22;;;2.50;;
11829;SDS011;5972;42.134;24.718;2023-04-15T02:42:36;5.70;;;2.85;;
11829;SDS011;5972;42.134;24.718;2023-04-15T02:45:02;5.35;;;2.60;;
11829;SDS011;5972;42.134;24.718;2023-04-15T02:47:30;7.03;;;2.70;;
11829;SDS011;5972;42.134;24.718;2023-04-15T02:49:56;3.90;;;2.80;;
11829;SDS011;5972;42.134;24.718;2023-04-15T02:52:26;4.82;;;2.97;;
11829;SDS011;5972;42.134;24.718;2023-04-15T02:54:52;4.05;;;2.63;;
11829;SDS011;5972;42.134;24.718;2023-04-15T02:57:21;4.88;;;3.00;;
11829;SDS011;5972;42.134;24.718;2023-04-15T02:59:48;5.40;;;3.42;;
11829;SDS011;5972;42.134;24.718;2023-04-15T03:02:14;4.05;;;2.90;;
11829;SDS011;5972;42.134;24.718;2023-04-15T03:04:41;5.32;;;2.97;;
11829;SDS011;5972;42.134;24.718;2023-04-15T03:07:07;3.65;;;2.92;;
11829;SDS011;5972;42.134;24.718;2023-04-15T03:09:35;4.07;;;2.72;;
11829;SDS011;5972;42.134;24.718;2023-04-15T03:12:03;4.22;;;2.70;;
11829;SDS011;5972;42.134;24.718;2023-04-15T03:14:30;5.15;;;2.65;;
11829;SDS011;5972;42.134;24.718;2023-04-15T03:16:56;3.38;;;2.47;;
11829;SDS011;5972;42.134;24.718;2023-04-15T03:19:23;4.25;;;2.50;;
11829;SDS011;5972;42.134;24.718;2023-04-15T03:21:50;3.33;;;2.55;;
11829;SDS011;5972;42.134;24.718;2023-04-15T03:24:17;2.78;;;2.58;;
11829;SDS011;5972;42.134;24.718;2023-04-15T03:26:44;5.38;;;2.78;;
11829;SDS011;5972;42.134;24.718;2023-04-15T03:29:11;2.72;;;2.30;;
11829;SDS011;5972;42.134;24.718;2023-04-15T03:31:37;5.32;;;2.13;;
11829;SDS011;5972;42.134;24.718;2023-04-15T03:34:04;6.50;;;2.60;;
11829;SDS011;5972;42.134;24.718;2023-04-15T03:36:30;2.83;;;2.53;;
11829;SDS011;5972;42.134;24.718;2023-04-15T03:38:57;4.00;;;2.47;;
11829;SDS011;5972;42.134;24.718;2023-04-15T03:41:23;4.22;;;2.33;;
11829;SDS011;5972;42.134;24.718;2023-04-15T03:43:51;4.20;;;2.10;;
11829;SDS011;5972;42.134;24.718;2023-04-15T03:46:18;2.80;;;2.10;;
11829;SDS011;5972;42.134;24.718;2023-04-15T03:48:45;5.57;;;2.13;;
11829;SDS011;5972;42.134;24.718;2023-04-15T03:51:12;3.33;;;2.25;;
11829;SDS011;5972;42.134;24.718;2023-04-15T03:53:38;5.30;;;2.65;;
11829;SDS011;5972;42.134;24.718;2023-04-15T03:56:05;2.53;;;2.22;;
11829;SDS011;5972;42.134;24.718;2023-04-15T03:58:31;2.95;;;2.28;;
11829;SDS011;5972;42.134;24.718;2023-04-15T04:00:59;3.83;;;2.42;;
11829;SDS011;5972;42.134;24.718;2023-04-15T04:03:26;3.05;;;2.67;;
11829;SDS011;5972;42.134;24.718;2023-04-15T04:05:52;4.43;;;2.28;;
11829;SDS011;5972;42.134;24.718;2023-04-15T04:08:19;5.90;;;2.22;;
11829;SDS011;5972;42.134;24.718;2023-04-15T04:10:46;3.38;;;2.10;;
11829;SDS011;5972;42.134;24.718;2023-04-15T04:13:12;2.63;;;2.20;;
11829;SDS011;5972;42.134;24.718;2023-04-15T04:15:39;5.97;;;2.20;;
11829;SDS011;5972;42.134;24.718;2023-04-15T04:18:07;4.45;;;1.90;;
11829;SDS011;5972;42.134;24.718;2023-04-15T04:20:33;5.53;;;2.17;;
11829;SDS011;5972;42.134;24.718;2023-04-15T04:23:00;3.42;;;2.30;;
11829;SDS011;5972;42.134;24.718;2023-04-15T04:25:26;5.50;;;2.30;;
11829;SDS011;5972;42.134;24.718;2023-04-15T04:27:53;3.17;;;2.30;;
11829;SDS011;5972;42.134;24.718;2023-04-15T04:30:20;2.83;;;2.10;;
11829;SDS011;5972;42.134;24.718;2023-04-15T04:32:47;2.72;;;2.00;;
11829;SDS011;5972;42.134;24.718;2023-04-15T04:35:16;2.70;;;1.90;;
11829;SDS011;5972;42.134;24.718;2023-04-15T04:37:42;3.45;;;2.30;;
11829;SDS011;5972;42.134;24.718;2023-04-15T04:40:09;2.63;;;2.30;;
11829;SDS011;5972;42.134;24.718;2023-04-15T04:42:36;3.53;;;2.33;;
11829;SDS011;5972;42.134;24.718;2023-04-15T04:45:02;2.85;;;2.58;;
11829;SDS011;5972;42.134;24.718;2023-04-15T04:47:29;3.03;;;2.40;;
11829;SDS011;5972;42.134;24.718;2023-04-15T04:49:55;4.90;;;2.40;;
11829;SDS011;5972;42.134;24.718;2023-04-15T04:52:23;4.60;;;2.47;;
11829;SDS011;5972;42.134;24.718;2023-04-15T04:54:50;3.10;;;2.58;;
11829;SDS011;5972;42.134;24.718;2023-04-15T04:57:16;6.10;;;2.42;;
11829;SDS011;5972;42.134;24.718;2023-04-15T04:59:43;3.00;;;2.50;;
11829;SDS011;5972;42.134;24.718;2023-04-15T05:02:09;2.63;;;2.42;;
11829;SDS011;5972;42.134;24.718;2023-04-15T05:04:36;4.35;;;2.70;;
11829;SDS011;5972;42.134;24.718;2023-04-15T05:07:02;3.97;;;2.42;;
11829;SDS011;5972;42.134;24.718;2023-04-15T05:09:30;6.15;;;2.88;;
11829;SDS011;5972;42.134;24.718;2023-04-15T05:12:00;4.40;;;2.70;;
11829;SDS011;5972;42.134;24.718;2023-04-15T05:14:26;4.57;;;2.40;;
11829;SDS011;5972;42.134;24.718;2023-04-15T05:16:53;5.80;;;2.70;;
11829;SDS011;5972;42.134;24.718;2023-04-15T05:19:19;5.82;;;2.40;;
11829;SDS011;5972;42.134;24.718;2023-04-15T05:21:46;3.92;;;2.63;;
11829;SDS011;5972;42.134;24.718;2023-04-15T05:24:12;3.25;;;2.38;;
11829;SDS011;5972;42.134;24.718;2023-04-15T05:26:40;4.22;;;2.85;;
11829;SDS011;5972;42.134;24.718;2023-04-15T05:29:06;4.43;;;2.78;;
11829;SDS011;5972;42.134;24.718;2023-04-15T05:31:33;5.10;;;2.17;;
11829;SDS011;5972;42.134;24.718;2023-04-15T05:33:59;2.20;;;2.00;;
11829;SDS011;5972;42.134;24.718;2023-04-15T05:36:26;2.50;;;2.20;;
11829;SDS011;5972;42.134;24.718;2023-04-15T05:38:52;2.08;;;1.88;;
11829;SDS011;5972;42.134;24.718;2023-04-15T05:41:19;3.50;;;2.08;;
11829;SDS011;5972;42.134;24.718;2023-04-15T05:43:47;3.65;;;1.80;;
11829;SDS011;5972;42.134;24.718;2023-04-15T05:46:14;2.47;;;1.80;;
11829;SDS011;5972;42.134;24.718;2023-04-15T05:48:40;2.42;;;1.92;;
11829;SDS011;5972;42.134;24.718;2023-04-15T05:51:07;4.18;;;2.13;;
11829;SDS011;5972;42.134;24.718;2023-04-15T05:53:33;3.30;;;2.10;;
11829;SDS011;5972;42.134;24.718;2023-04-15T05:56:00;3.30;;;2.20;;
11829;SDS011;5972;42.134;24.718;2023-04-15T05:58:26;6.03;;;2.22;;
11829;SDS011;5972;42.134;24.718;2023-04-15T06:00:54;2.30;;;2.00;;
11829;SDS011;5972;42.134;24.718;2023-04-15T06:03:21;2.65;;;1.98;;
11829;SDS011;5972;42.134;24.718;2023-04-15T06:05:47;4.22;;;2.17;;
11829;SDS011;5972;42.134;24.718;2023-04-15T06:08:14;3.95;;;2.15;;
11829;SDS011;5972;42.134;24.718;2023-04-15T06:10:41;2.03;;;1.77;;
11829;SDS011;5972;42.134;24.718;2023-04-15T06:13:07;4.45;;;2.38;;
11829;SDS011;5972;42.134;24.718;2023-04-15T06:15:34;5.05;;;1.98;;
11829;SDS011;5972;42.134;24.718;2023-04-15T06:18:02;3.90;;;2.45;;
11829;SDS011;5972;42.134;24.718;2023-04-15T06:20:29;3.78;;;1.90;;
11829;SDS011;5972;42.134;24.718;2023-04-15T06:22:56;2.58;;;1.83;;
11829;SDS011;5972;42.134;24.718;2023-04-15T06:25:22;2.70;;;2.10;;
11829;SDS011;5972;42.134;24.718;2023-04-15T06:27:49;3.80;;;1.95;;
11829;SDS011;5972;42.134;24.718;2023-04-15T06:30:15;5.60;;;2.20;;
11829;SDS011;5972;42.134;24.718;2023-04-15T06:32:42;3.75;;;2.30;;
11829;SDS011;5972;42.134;24.718;2023-04-15T06:35:10;5.90;;;2.28;;
11829;SDS011;5972;42.134;24.718;2023-04-15T06:37:36;4.53;;;2.10;;
11829;SDS011;5972;42.134;24.718;2023-04-15T06:40:03;3.63;;;2.05;;
11829;SDS011;5972;42.134;24.718;2023-04-15T06:42:30;5.50;;;2.45;;
11829;SDS011;5972;42.134;24.718;2023-04-15T06:44:56;4.75;;;2.13;;
11829;SDS011;5972;42.134;24.718;2023-04-15T06:47:22;3.40;;;2.03;;
11829;SDS011;5972;42.134;24.718;2023-04-15T06:49:49;4.15;;;2.15;;
11829;SDS011;5972;42.134;24.718;2023-04-15T06:52:17;4.60;;;2.15;;
11829;SDS011;5972;42.134;24.718;2023-04-15T06:54:43;6.75;;;2.30;;
11829;SDS011;5972;42.134;24.718;2023-04-15T06:57:10;3.47;;;2.33;;
11829;SDS011;5972;42.134;24.718;2023-04-15T06:59:36;3.78;;;1.95;;
11829;SDS011;5972;42.134;24.718;2023-04-15T07:02:03;6.30;;;2.70;;
11829;SDS011;5972;42.134;24.718;2023-04-15T07:04:30;4.72;;;2.10;;
11829;SDS011;5972;42.134;24.718;2023-04-15T07:06:56;4.47;;;2.33;;
11829;SDS011;5972;42.134;24.718;2023-04-15T07:09:27;4.45;;;2.72;;
11829;SDS011;5972;42.134;24.718;2023-04-15T07:11:54;5.10;;;3.45;;
11829;SDS011;5972;42.134;24.718;2023-04-15T07:14:20;8.13;;;3.45;;
11829;SDS011;5972;42.134;24.718;2023-04-15T07:16:47;5.40;;;3.95;;
11829;SDS011;5972;42.134;24.718;2023-04-15T07:19:13;5.50;;;3.88;;
11829;SDS011;5972;42.134;24.718;2023-04-15T07:21:40;6.35;;;3.50;;
11829;SDS011;5972;42.134;24.718;2023-04-15T07:24:06;5.22;;;3.80;;
11829;SDS011;5972;42.134;24.718;2023-04-15T07:26:35;6.38;;;3.72;;
11829;SDS011;5972;42.134;24.718;2023-04-15T07:29:02;5.05;;;3.70;;
11829;SDS011;5972;42.134;24.718;2023-04-15T07:31:28;5.70;;;4.35;;
11829;SDS011;5972;42.134;24.718;2023-04-15T07:33:55;5.55;;;3.80;;
11829;SDS011;5972;42.134;24.718;2023-04-15T07:36:22;8.32;;;3.83;;
11829;SDS011;5972;42.134;24.718;2023-04-15T07:38:49;7.25;;;4.20;;
11829;SDS011;5972;42.134;24.718;2023-04-15T07:41:16;7.47;;;4.22;;
11829;SDS011;5972;42.134;24.718;2023-04-15T07:43:44;5.22;;;4.18;;
11829;SDS011;5972;42.134;24.718;2023-04-15T07:46:10;7.18;;;4.63;;
11829;SDS011;5972;42.134;24.718;2023-04-15T07:48:37;12.07;;;5.20;;
11829;SDS011;5972;42.134;24.718;2023-04-15T07:51:03;7.10;;;4.45;;
11829;SDS011;5972;42.134;24.718;2023-04-15T07:53:30;7.50;;;4.13;;
11829;SDS011;5972;42.134;24.718;2023-04-15T07:55:57;6.78;;;3.55;;
11829;SDS011;5972;42.134;24.718;2023-04-15T07:58:23;8.95;;;3.67;;
11829;SDS011;5972;42.134;24.718;2023-04-15T08:00:51;6.05;;;3.25;;
11829;SDS011;5972;42.134;24.718;2023-04-15T08:03:20;6.38;;;3.05;;
11829;SDS011;5972;42.134;24.718;2023-04-15T08:05:46;6.20;;;3.13;;
11829;SDS011;5972;42.134;24.718;2023-04-15T08:08:13;6.50;;;3.65;;
11829;SDS011;5972;42.134;24.718;2023-04-15T08:10:39;5.45;;;3.67;;
11829;SDS011;5972;42.134;24.718;2023-04-15T08:13:06;5.68;;;3.25;;
11829;SDS011;5972;42.134;24.718;2023-04-15T08:15:32;4.20;;;2.92;;
11829;SDS011;5972;42.134;24.718;2023-04-15T08:18:00;7.63;;;3.53;;
11829;SDS011;5972;42.134;24.718;2023-04-15T08:20:27;6.88;;;3.05;;
11829;SDS011;5972;42.134;24.718;2023-04-15T08:22:54;5.75;;;2.90;;
11829;SDS011;5972;42.134;24.718;2023-04-15T08:25:20;6.60;;;2.90;;
11829;SDS011;5972;42.134;24.718;2023-04-15T08:27:47;4.80;;;2.72;;
11829;SDS011;5972;42.134;24.718;2023-04-15T08:30:13;6.53;;;2.80;;
11829;SDS011;5972;42.134;24.718;2023-04-15T08:32:40;5.85;;;3.00;;
11829;SDS011;5972;42.134;24.718;2023-04-15T08:35:08;4.70;;;2.90;;
11829;SDS011;5972;42.134;24.718;2023-04-15T08:37:35;5.22;;;2.75;;
11829;SDS011;5972;42.134;24.718;2023-04-15T08:40:01;3.90;;;2.88;;
11829;SDS011;5972;42.134;24.718;2023-04-15T08:42:30;4.68;;;2.75;;
11829;SDS011;5972;42.134;24.718;2023-04-15T08:44:57;3.47;;;2.53;;
11829;SDS011;5972;42.134;24.718;2023-04-15T08:47:25;4.00;;;2.75;;
11829;SDS011;5972;42.134;24.718;2023-04-15T08:49:54;5.35;;;2.78;;
11829;SDS011;5972;42.134;24.718;2023-04-15T08:52:24;5.05;;;2.58;;
11829;SDS011;5972;42.134;24.718;2023-04-15T08:54:51;5.80;;;2.47;;
11829;SDS011;5972;42.134;24.718;2023-04-15T08:57:18;4.18;;;2.85;;
11829;SDS011;5972;42.134;24.718;2023-04-15T08:59:45;4.85;;;2.63;;
11829;SDS011;5972;42.134;24.718;2023-04-15T09:02:12;4.20;;;2.70;;
11829;SDS011;5972;42.134;24.718;2023-04-15T09:04:38;6.68;;;3.00;;
11829;SDS011;5972;42.134;24.718;2023-04-15T09:07:05;7.70;;;2.80;;
11829;SDS011;5972;42.134;24.718;2023-04-15T09:09:33;4.03;;;2.38;;
11829;SDS011;5972;42.134;24.718;2023-04-15T09:12:01;4.95;;;2.40;;
11829;SDS011;5972;42.134;24.718;2023-04-15T09:14:28;3.83;;;2.17;;
11829;SDS011;5972;42.134;24.718;2023-04-15T09:16:56;9.15;;;1.98;;
11829;SDS011;5972;42.134;24.718;2023-04-15T09:19:23;5.68;;;2.00;;
11829;SDS011;5972;42.134;24.718;2023-04-15T09:21:51;4.38;;;2.42;;
11829;SDS011;5972;42.134;24.718;2023-04-15T09:24:18;5.30;;;2.20;;
11829;SDS011;5972;42.134;24.718;2023-04-15T09:26:46;3.15;;;2.17;;
11829;SDS011;5972;42.134;24.718;2023-04-15T09:29:13;4.53;;;2.63;;
11829;SDS011;5972;42.134;24.718;2023-04-15T09:31:40;5.32;;;2.30;;
11829;SDS011;5972;42.134;24.718;2023-04-15T09:34:07;3.13;;;2.13;;
11829;SDS011;5972;42.134;24.718;2023-04-15T09:36:51;4.82;;;2.35;;
11829;SDS011;5972;42.134;24.718;2023-04-15T09:39:17;4.90;;;2.40;;
11829;SDS011;5972;42.134;24.718;2023-04-15T09:41:44;6.22;;;2.70;;
11829;SDS011;5972;42.134;24.718;2023-04-15T09:44:22;4.25;;;2.30;;
11829;SDS011;5972;42.134;24.718;2023-04-15T09:46:48;3.97;;;2.72;;
11829;SDS011;5972;42.134;24.718;2023-04-15T09:49:15;4.10;;;2.58;;
11829;SDS011;5972;42.134;24.718;2023-04-15T09:51:42;5.45;;;3.42;;
11829;SDS011;5972;42.134;24.718;2023-04-15T09:54:09;6.22;;;3.03;;
11829;SDS011;5972;42.134;24.718;2023-04-15T09:56:36;5.70;;;3.08;;
11829;SDS011;5972;42.134;24.718;2023-04-15T09:59:03;5.55;;;3.05;;
11829;SDS011;5972;42.134;24.718;2023-04-15T10:01:31;3.47;;;3.05;;
11829;SDS011;5972;42.134;24.718;2023-04-15T10:03:58;5.15;;;2.53;;
11829;SDS011;5972;42.134;24.718;2023-04-15T10:06:26;6.90;;;2.70;;
11829;SDS011;5972;42.134;24.718;2023-04-15T10:08:53;6.40;;;2.70;;
11829;SDS011;5972;42.134;24.718;2023-04-15T10:11:19;6.85;;;3.03;;
11829;SDS011;5972;42.134;24.718;2023-04-15T10:13:47;6.13;;;2.85;;
11829;SDS011;5972;42.134;24.718;2023-04-15T10:16:15;3.83;;;2.50;;
11829;SDS011;5972;42.134;24.718;2023-04-15T10:18:44;7.90;;;2.47;;
11829;SDS011;5972;42.134;24.718;2023-04-15T10:21:10;3.22;;;2.22;;
11829;SDS011;5972;42.134;24.718;2023-04-15T10:23:38;3.25;;;1.73;;
11829;SDS011;5972;42.134;24.718;2023-04-15T10:26:05;4.28;;;1.98;;
11829;SDS011;5972;42.134;24.718;2023-04-15T10:28:31;3.20;;;1.67;;
11829;SDS011;5972;42.134;24.718;2023-04-15T10:30:58;3.88;;;1.70;;
11829;SDS011;5972;42.134;24.718;2023-04-15T10:33:25;3.95;;;1.70;;
11829;SDS011;5972;42.134;24.718;2023-04-15T10:35:54;5.07;;;2.00;;
11829;SDS011;5972;42.134;24.718;2023-04-15T10:38:30;3.83;;;2.10;;
11829;SDS011;5972;42.134;24.718;2023-04-15T10:41:01;3.28;;;1.85;;
11829;SDS011;5972;42.134;24.718;2023-04-15T10:43:37;4.10;;;1.77;;
11829;SDS011;5972;42.134;24.718;2023-04-15T10:46:04;4.07;;;2.03;;
11829;SDS011;5972;42.134;24.718;2023-04-15T10:48:30;3.65;;;1.83;;
11829;SDS011;5972;42.134;24.718;2023-04-15T10:51:00;3.83;;;2.10;;
11829;SDS011;5972;42.134;24.718;2023-04-15T10:53:28;5.10;;;2.30;;
11829;SDS011;5972;42.134;24.718;2023-04-15T10:55:55;3.70;;;2.15;;
11829;SDS011;5972;42.134;24.718;2023-04-15T10:58:22;4.75;;;2.83;;
11829;SDS011;5972;42.134;24.718;2023-04-15T11:00:49;4.90;;;3.17;;
11829;SDS011;5972;42.134;24.718;2023-04-15T11:03:16;5.75;;;2.90;;
11829;SDS011;5972;42.134;24.718;2023-04-15T11:05:49;4.38;;;2.78;;
11829;SDS011;5972;42.134;24.718;2023-04-15T11:08:17;5.10;;;3.55;;
11829;SDS011;5972;42.134;24.718;2023-04-15T11:13:26;6.53;;;3.97;;
11829;SDS011;5972;42.134;24.718;2023-04-15T11:15:59;7.80;;;3.47;;
11829;SDS011;5972;42.134;24.718;2023-04-15T11:18:27;5.88;;;3.28;;
11829;SDS011;5972;42.134;24.718;2023-04-15T11:20:55;3.58;;;3.17;;
11829;SDS011;5972;42.134;24.718;2023-04-15T11:23:28;6.72;;;3.40;;
11829;SDS011;5972;42.134;24.718;2023-04-15T11:25:55;5.35;;;3.90;;
11829;SDS011;5972;42.134;24.718;2023-04-15T11:28:23;4.95;;;3.70;;
11829;SDS011;5972;42.134;24.718;2023-04-15T11:30:50;5.43;;;4.40;;
11829;SDS011;5972;42.134;24.718;2023-04-15T11:33:18;5.53;;;4.70;;
11829;SDS011;5972;42.134;24.718;2023-04-15T11:35:44;5.32;;;4.00;;
11829;SDS011;5972;42.134;24.718;2023-04-15T11:38:11;4.82;;;4.25;;
11829;SDS011;5972;42.134;24.718;2023-04-15T11:40:41;4.38;;;3.42;;
11829;SDS011;5972;42.134;24.718;2023-04-15T11:43:08;6.35;;;3.50;;
11829;SDS011;5972;42.134;24.718;2023-04-15T11:45:35;6.20;;;4.20;;
11829;SDS011;5972;42.134;24.718;2023-04-15T11:48:05;5.25;;;4.25;;
11829;SDS011;5972;42.134;24.718;2023-04-15T11:50:32;7.28;;;3.67;;
11829;SDS011;5972;42.134;24.718;2023-04-15T11:52:59;4.80;;;3.85;;
11829;SDS011;5972;42.134;24.718;2023-04-15T11:55:27;5.45;;;3.80;;
11829;SDS011;5972;42.134;24.718;2023-04-15T11:58:10;4.68;;;3.63;;
11829;SDS011;5972;42.134;24.718;2023-04-15T12:00:37;4.60;;;3.72;;
11829;SDS011;5972;42.134;24.718;2023-04-15T12:03:16;6.45;;;4.10;;
11829;SDS011;5972;42.134;24.718;2023-04-15T12:11:09;7.75;;;4.30;;
11829;SDS011;5972;42.134;24.718;2023-04-15T12:13:37;8.00;;;3.58;;
11829;SDS011;5972;42.134;24.718;2023-04-15T12:16:03;5.50;;;3.50;;
11829;SDS011;5972;42.134;24.718;2023-04-15T12:18:30;3.83;;;3.08;;
11829;SDS011;5972;42.134;24.718;2023-04-15T12:20:56;3.70;;;2.35;;
11829;SDS011;5972;42.134;24.718;2023-04-15T12:23:29;3.85;;;2.80;;
11829;SDS011;5972;42.134;24.718;2023-04-15T12:25:56;5.40;;;3.13;;
11829;SDS011;5972;42.134;24.718;2023-04-15T12:28:22;3.97;;;2.20;;
11829;SDS011;5972;42.134;24.718;2023-04-15T12:30:50;3.35;;;1.92;;
11829;SDS011;5972;42.134;24.718;2023-04-15T12:33:17;2.55;;;2.03;;
11829;SDS011;5972;42.134;24.718;2023-04-15T12:35:44;2.70;;;2.22;;
11829;SDS011;5972;42.134;24.718;2023-04-15T12:38:10;5.28;;;2.13;;
11829;SDS011;5972;42.134;24.718;2023-04-15T12:40:37;6.00;;;2.00;;
11829;SDS011;5972;42.134;24.718;2023-04-15T12:43:03;2.40;;;1.90;;
11829;SDS011;5972;42.134;24.718;2023-04-15T12:45:30;3.78;;;2.05;;
11829;SDS011;5972;42.134;24.718;2023-04-15T12:47:58;2.55;;;1.58;;
11829;SDS011;5972;42.134;24.718;2023-04-15T12:50:24;3.05;;;2.28;;
11829;SDS011;5972;42.134;24.718;2023-04-15T12:52:51;3.78;;;1.80;;
11829;SDS011;5972;42.134;24.718;2023-04-15T12:55:17;5.35;;;1.92;;
11829;SDS011;5972;42.134;24.718;2023-04-15T12:57:43;1.77;;;1.50;;
11829;SDS011;5972;42.134;24.718;2023-04-15T13:00:10;3.13;;;1.65;;
11829;SDS011;5972;42.134;24.718;2023-04-15T13:02:37;2.47;;;1.33;;
11829;SDS011;5972;42.134;24.718;2023-04-15T13:05:05;4.63;;;1.50;;
11829;SDS011;5972;42.134;24.718;2023-04-15T13:07:32;4.57;;;1.70;;
11829;SDS011;5972;42.134;24.718;2023-04-15T13:09:58;2.35;;;1.70;;
11829;SDS011;5972;42.134;24.718;2023-04-15T13:12:25;4.82;;;1.85;;
11829;SDS011;5972;42.134;24.718;2023-04-15T13:14:52;3.88;;;1.73;;
11829;SDS011;5972;42.134;24.718;2023-04-15T13:17:18;3.05;;;1.50;;
11829;SDS011;5972;42.134;24.718;2023-04-15T13:19:46;3.58;;;1.75;;
11829;SDS011;5972;42.134;24.718;2023-04-15T13:22:13;5.78;;;1.75;;
11829;SDS011;5972;42.134;24.718;2023-04-15T13:24:40;4.47;;;1.65;;
11829;SDS011;5972;42.134;24.718;2023-04-15T13:27:06;3.60;;;1.55;;
11829;SDS011;5972;42.134;24.718;2023-04-15T13:29:33;5.90;;;1.95;;
11829;SDS011;5972;42.134;24.718;2023-04-15T13:31:59;5.07;;;1.83;;
11829;SDS011;5972;42.134;24.718;2023-04-15T13:34:26;3.00;;;1.75;;
11829;SDS011;5972;42.134;24.718;2023-04-15T13:36:53;4.72;;;1.65;;
11829;SDS011;5972;42.134;24.718;2023-04-15T13:39:20;2.92;;;1.48;;
11829;SDS011;5972;42.134;24.718;2023-04-15T13:41:47;4.43;;;1.80;;
11829;SDS011;5972;42.134;24.718;2023-04-15T13:44:13;2.33;;;1.60;;
11829;SDS011;5972;42.134;24.718;2023-04-15T13:46:40;2.75;;;1.58;;
11829;SDS011;5972;42.134;24.718;2023-04-15T13:49:07;3.65;;;1.63;;
11829;SDS011;5972;42.134;24.718;2023-04-15T13:51:33;2.45;;;1.60;;
11829;SDS011;5972;42.134;24.718;2023-04-15T13:54:00;3.55;;;1.63;;
11829;SDS011;5972;42.134;24.718;2023-04-15T13:56:29;4.63;;;2.05;;
11829;SDS011;5972;42.134;24.718;2023-04-15T13:58:55;3.83;;;1.90;;
11829;SDS011;5972;42.134;24.718;2023-04-15T14:01:26;5.47;;;2.15;;
11829;SDS011;5972;42.134;24.718;2023-04-15T14:03:52;4.10;;;1.70;;
11829;SDS011;5972;42.134;24.718;2023-04-15T14:06:19;3.35;;;1.70;;
11829;SDS011;5972;42.134;24.718;2023-04-15T14:08:45;2.72;;;1.60;;
11829;SDS011;5972;42.134;24.718;2023-04-15T14:11:12;5.40;;;1.73;;
11829;SDS011;5972;42.134;24.718;2023-04-15T14:13:39;4.50;;;1.70;;
11829;SDS011;5972;42.134;24.718;2023-04-15T14:16:06;6.95;;;1.50;;
11829;SDS011;5972;42.134;24.718;2023-04-15T14:18:32;2.20;;;1.40;;
11829;SDS011;5972;42.134;24.718;2023-04-15T14:20:59;4.50;;;2.00;;
11829;SDS011;5972;42.134;24.718;2023-04-15T14:23:25;5.32;;;1.77;;
11829;SDS011;5972;42.134;24.718;2023-04-15T14:25:52;4.15;;;1.90;;
11829;SDS011;5972;42.134;24.718;2023-04-15T14:28:18;4.25;;;1.90;;
11829;SDS011;5972;42.134;24.718;2023-04-15T14:30:46;5.57;;;1.98;;
11829;SDS011;5972;42.134;24.718;2023-04-15T14:33:13;5.53;;;1.92;;
11829;SDS011;5972;42.134;24.718;2023-04-15T14:35:39;2.70;;;1.85;;
11829;SDS011;5972;42.134;24.718;2023-04-15T14:38:06;4.43;;;1.73;;
11829;SDS011;5972;42.134;24.718;2023-04-15T14:40:34;3.20;;;1.70;;
11829;SDS011;5972;42.134;24.718;2023-04-15T14:43:01;3.10;;;1.83;;
11829;SDS011;5972;42.134;24.718;2023-04-15T14:45:27;3.92;;;1.50;;
11829;SDS011;5972;42.134;24.718;2023-04-15T14:47:57;5.20;;;1.77;;
11829;SDS011;5972;42.134;24.718;2023-04-15T14:50:24;6.47;;;2.55;;
11829;SDS011;5972;42.134;24.718;2023-04-15T14:52:51;3.67;;;1.75;;
11829;SDS011;5972;42.134;24.718;2023-04-15T14:55:17;4.18;;;1.92;;